createdAt,value
2023-05-11T00:01:14.667Z,99994.22
2023-05-11T00:06:17.414Z,99986.34
2023-05-11T00:11:20.168Z,99971.41
2023-05-11T00:16:22.761Z,99993.25
2023-05-11T00:21:25.308Z,99934.59
2023-05-11T00:26:27.809Z,99988.84
2023-05-11T00:31:30.655Z,99982.69
2023-05-11T00:36:33.710Z,99966.00
2023-05-11T00:41:36.529Z,99910.84
2023-05-11T00:46:39.196Z,99992.28
2023-05-11T00:51:41.646Z,99996.56
2023-05-11T00:56:44.161Z,99983.34
2023-05-11T01:01:46.832Z,99981.56
2023-05-11T01:07:04.342Z,100001.75
2023-05-11T01:12:09.039Z,100005.19
2023-05-11T01:17:19.531Z,99997.22
2023-05-11T01:22:32.128Z,100012.13
2023-05-11T01:27:55.753Z,99829.94
2023-05-11T01:33:00.624Z,99916.50
2023-05-11T01:38:04.639Z,99944.47
2023-05-11T01:43:10.626Z,100009.28
2023-05-11T01:48:20.728Z,99978.56
2023-05-11T01:53:23.791Z,100001.28
2023-05-11T01:58:27.771Z,100010.06
2023-05-11T02:03:32.067Z,99913.69
2023-05-11T02:08:35.028Z,99980.22
2023-05-11T02:13:39.735Z,100009.19
2023-05-11T02:18:43.039Z,99953.97
2023-05-11T02:23:47.258Z,99992.44
2023-05-11T02:28:50.567Z,99989.78
2023-05-11T02:33:54.282Z,100017.81
2023-05-11T02:39:03.744Z,99968.75
2023-05-11T02:44:08.260Z,99900.38
2023-05-11T02:49:12.051Z,99992.41
2023-05-11T02:54:15.657Z,99984.56
2023-05-11T02:59:23.652Z,99922.34
2023-05-11T03:04:26.271Z,99971.47
2023-05-11T03:09:29.226Z,99995.13
2023-05-11T03:14:33.662Z,100024.94
2023-05-11T03:19:37.450Z,99935.56
2023-05-11T03:24:40.588Z,100005.66
2023-05-11T03:29:44.949Z,99972.41
2023-05-11T03:34:47.883Z,100010.13
2023-05-11T03:39:56.831Z,100046.13
2023-05-11T03:45:01.442Z,99999.78
2023-05-11T03:50:08.103Z,99954.22
2023-05-11T03:55:11.145Z,99982.34
2023-05-11T04:00:14.188Z,100002.56
2023-05-11T04:05:20.644Z,100026.34
2023-05-11T04:10:23.921Z,100019.44
2023-05-11T04:15:26.263Z,100043.16
2023-05-11T04:20:28.715Z,100057.31
2023-05-11T04:25:31.048Z,100056.53
2023-05-11T04:30:33.545Z,100035.56
2023-05-11T04:35:40.024Z,100063.63
2023-05-11T04:40:43.715Z,100066.31
2023-05-11T04:45:52.780Z,99935.03
2023-05-11T04:50:59.826Z,100036.69
2023-05-11T04:56:06.890Z,100021.84
2023-05-11T05:01:09.632Z,100068.31
2023-05-11T05:06:12.242Z,99979.06
2023-05-11T05:11:14.905Z,100067.50
2023-05-11T05:16:17.533Z,100014.16
2023-05-11T05:21:20.158Z,100050.97
2023-05-11T05:26:24.312Z,99991.50
2023-05-11T05:31:27.302Z,100058.91
2023-05-11T05:36:30.656Z,100043.19
2023-05-11T05:41:33.115Z,100012.59
2023-05-11T05:46:36.903Z,100057.28
2023-05-11T05:51:39.854Z,100040.66
2023-05-11T05:56:43.182Z,100013.53
2023-05-11T06:01:48.381Z,100056.28
2023-05-11T06:06:51.626Z,99984.53
2023-05-11T06:11:54.530Z,100050.81
2023-05-11T06:16:59.149Z,99991.38
2023-05-11T06:22:06.727Z,100056.81
2023-05-11T06:27:11.666Z,100040.16
2023-05-11T06:32:15.426Z,100049.66
2023-05-11T06:37:21.435Z,99988.41
2023-05-11T06:42:26.119Z,100022.28
2023-05-11T06:47:39.828Z,100023.72
2023-05-11T06:52:42.390Z,99951.00
2023-05-11T06:57:46.149Z,100034.59
2023-05-11T07:02:48.865Z,99950.91
2023-05-11T07:07:51.668Z,100038.47
2023-05-11T07:12:54.283Z,100052.19
2023-05-11T07:17:56.926Z,100049.31
2023-05-11T07:22:59.736Z,100046.44
2023-05-11T07:28:02.265Z,100046.94
2023-05-11T07:33:04.847Z,99941.31
2023-05-11T07:38:12.204Z,99981.25
2023-05-11T07:43:14.747Z,100018.31
2023-05-11T07:48:18.475Z,100046.91
2023-05-11T07:53:21.050Z,100017.75
2023-05-11T07:58:23.701Z,99969.41
2023-05-11T08:03:26.254Z,99923.28
2023-05-11T08:08:28.812Z,100023.03
2023-05-11T08:13:32.080Z,99947.22
2023-05-11T08:18:34.691Z,99974.34
2023-05-11T08:23:37.629Z,99929.94
2023-05-11T08:28:40.185Z,100019.59
2023-05-11T08:33:42.795Z,100013.50
2023-05-11T08:38:45.352Z,100012.72
2023-05-11T08:43:49.228Z,99977.09
2023-05-11T08:48:51.695Z,99989.31
2023-05-11T08:53:54.995Z,100002.03
2023-05-11T08:58:58.305Z,99940.19
2023-05-11T09:04:01.042Z,99946.38
2023-05-11T09:09:04.097Z,99973.09
2023-05-11T09:14:06.865Z,99973.09
2023-05-11T09:19:15.731Z,99872.22
2023-05-11T09:24:20.856Z,99836.59
2023-05-11T09:29:23.664Z,99949.72
2023-05-11T09:34:27.108Z,99892.41
2023-05-11T09:39:42.201Z,99898.34
2023-05-11T09:44:58.075Z,99972.56
2023-05-11T09:50:00.517Z,99945.41
2023-05-11T09:55:11.136Z,99958.50
2023-05-11T10:00:16.968Z,99981.19
2023-05-11T10:05:21.950Z,99993.25
2023-05-11T10:10:24.888Z,99917.38
2023-05-11T10:15:31.037Z,99985.25
2023-05-11T10:20:33.678Z,99982.88
2023-05-11T10:25:38.105Z,99846.09
2023-05-11T10:30:41.520Z,99928.53
2023-05-11T10:35:46.801Z,99814.97
2023-05-11T10:40:49.924Z,99932.19
2023-05-11T10:46:17.317Z,99950.72
2023-05-11T10:51:38.451Z,99884.81
2023-05-11T10:56:53.711Z,99935.53
2023-05-11T11:01:59.436Z,99864.59
2023-05-11T11:07:09.247Z,99930.13
2023-05-11T11:12:12.646Z,99913.84
2023-05-11T11:17:15.244Z,99908.94
2023-05-11T11:22:36.603Z,99895.72
2023-05-11T11:27:42.107Z,99939.00
2023-05-11T11:32:46.317Z,99918.56
2023-05-11T11:38:07.315Z,99847.00
2023-05-11T11:43:19.585Z,99786.56
2023-05-11T11:48:24.418Z,99928.13
2023-05-11T11:53:41.530Z,99956.75
2023-05-11T11:58:44.803Z,99981.81
2023-05-11T12:03:52.811Z,99952.28
2023-05-11T12:08:55.489Z,100015.66
2023-05-11T12:13:58.684Z,99978.69
2023-05-11T12:19:02.293Z,99986.66
2023-05-11T12:24:06.095Z,99994.66
2023-05-11T12:29:09.509Z,99987.41
2023-05-11T12:34:19.198Z,99986.31
2023-05-11T12:39:26.734Z,99944.19
2023-05-11T12:44:29.765Z,99936.34
2023-05-11T12:49:32.755Z,99919.63
2023-05-11T12:54:39.679Z,99913.50
2023-05-11T12:59:42.312Z,99910.63
2023-05-11T13:04:47.209Z,99956.56
2023-05-11T13:10:00.364Z,99878.97
2023-05-11T13:15:06.443Z,99958.25
2023-05-11T13:20:22.616Z,99923.38
2023-05-11T13:25:25.355Z,99927.16
2023-05-11T13:30:28.667Z,99947.78
2023-05-11T13:35:31.445Z,99924.06
2023-05-11T13:40:35.339Z,99926.59
2023-05-11T13:45:40.537Z,99923.84
2023-05-11T13:50:43.284Z,99915.75
2023-05-11T13:55:48.456Z,99888.66
2023-05-11T14:01:06.710Z,99940.91
2023-05-11T14:06:10.640Z,99909.72
2023-05-11T14:11:14.657Z,99876.31
2023-05-11T14:16:17.989Z,99880.72
2023-05-11T14:21:21.156Z,99920.59
2023-05-11T14:26:23.775Z,99828.28
2023-05-11T14:31:26.586Z,99847.28
2023-05-11T14:36:29.111Z,99916.31
2023-05-11T14:41:31.602Z,99892.81
2023-05-11T14:46:35.760Z,99910.31
2023-05-11T14:51:39.675Z,99898.94
2023-05-11T14:56:42.250Z,99893.75
2023-05-11T15:01:44.934Z,99849.38
2023-05-11T15:06:47.448Z,99888.47
2023-05-11T15:11:50.019Z,99800.69
2023-05-11T15:16:55.098Z,99901.94
2023-05-11T15:21:57.840Z,99864.56
2023-05-11T15:27:00.630Z,99890.75
2023-05-11T15:32:03.211Z,99898.72
2023-05-11T15:37:06.407Z,99891.72
2023-05-11T15:42:08.830Z,99884.75
2023-05-11T15:47:12.396Z,99885.66
2023-05-11T15:52:14.845Z,99895.34
2023-05-11T15:57:17.333Z,99889.31
2023-05-11T16:02:19.917Z,99850.09
2023-05-11T16:07:22.619Z,99782.25
2023-05-11T16:12:25.192Z,99840.56
2023-05-11T16:17:27.877Z,99869.56
2023-05-11T16:22:31.562Z,99903.59
2023-05-11T16:27:34.390Z,99877.69
2023-05-11T16:32:37.191Z,99830.91
2023-05-11T16:37:40.804Z,99664.72
2023-05-11T16:42:43.637Z,99592.56
2023-05-11T16:47:47.389Z,99505.66
2023-05-11T16:52:50.024Z,99850.31
2023-05-11T16:57:55.722Z,99907.78
2023-05-11T17:02:58.835Z,99617.03
2023-05-11T17:08:01.526Z,99785.09
2023-05-11T17:13:04.661Z,99573.59
2023-05-11T17:18:07.327Z,99832.28
2023-05-11T17:23:09.888Z,99682.56
2023-05-11T17:28:12.556Z,99810.84
2023-05-11T17:33:15.892Z,99735.16
2023-05-11T17:38:18.720Z,99820.66
2023-05-11T17:43:21.191Z,99847.88
2023-05-11T17:48:24.556Z,99914.31
2023-05-11T17:53:27.743Z,99938.97
2023-05-11T17:58:30.412Z,99955.69
2023-05-11T18:03:33.117Z,99857.19
2023-05-11T18:08:37.033Z,99955.88
2023-05-11T18:13:40.008Z,99877.47
2023-05-11T18:18:43.059Z,99899.38
2023-05-11T18:23:46.612Z,99883.72
2023-05-11T18:28:49.463Z,99904.72
2023-05-11T18:33:52.116Z,99923.13
2023-05-11T18:38:54.556Z,99964.22
2023-05-11T18:43:57.283Z,99967.75
2023-05-11T18:49:02.683Z,99917.97
2023-05-11T18:54:05.523Z,99945.94
2023-05-11T18:59:08.385Z,99949.50
2023-05-11T19:04:10.913Z,99897.13
2023-05-11T19:09:15.486Z,99940.81
2023-05-11T19:14:21.338Z,99939.97
2023-05-11T19:19:26.119Z,99965.38
2023-05-11T19:24:30.139Z,99932.19
2023-05-11T19:35:14.438Z,99982.91
2023-05-11T19:45:33.122Z,99971.56
2023-05-11T19:50:36.776Z,99888.47
2023-05-11T19:55:41.033Z,99928.69
2023-05-11T20:00:43.725Z,99912.97
2023-05-11T20:05:47.216Z,99927.81
2023-05-11T20:10:49.989Z,99968.06
2023-05-11T20:15:52.527Z,99940.91
2023-05-11T20:20:55.168Z,99924.31
2023-05-11T20:25:57.664Z,99974.13
2023-05-11T20:31:00.145Z,99947.88
2023-05-11T20:36:02.819Z,99944.38
2023-05-11T20:41:05.703Z,99951.34
2023-05-11T20:46:08.110Z,99940.00
2023-05-11T20:51:10.723Z,99909.38
2023-05-11T20:56:13.880Z,99761.56
2023-05-11T21:01:16.360Z,99785.16
2023-05-11T21:06:19.165Z,99965.25
2023-05-11T21:11:22.436Z,99945.97
2023-05-11T21:16:25.002Z,99945.09
2023-05-11T21:21:27.842Z,99907.47
2023-05-11T21:26:30.783Z,99966.03
2023-05-11T21:31:33.490Z,99966.91
2023-05-11T21:36:36.484Z,99958.09
2023-05-11T21:41:39.402Z,99941.50
2023-05-11T21:46:42.109Z,99980.84
2023-05-11T21:51:44.624Z,99860.91
2023-05-11T21:56:47.079Z,99860.88
2023-05-11T22:01:50.016Z,99915.16
2023-05-11T22:06:52.741Z,99958.91
2023-05-11T22:11:55.322Z,99911.63
2023-05-11T22:16:57.900Z,99825.84
2023-05-11T22:22:00.476Z,99941.34
2023-05-11T22:27:03.136Z,99954.47
2023-05-11T22:32:06.071Z,99965.81
2023-05-11T22:37:08.801Z,99880.88
2023-05-11T22:42:11.289Z,99807.38
2023-05-11T22:47:13.999Z,99935.97
2023-05-11T22:52:16.746Z,99930.72
2023-05-11T22:57:19.284Z,99954.31
2023-05-11T23:02:21.889Z,99867.56
2023-05-11T23:07:24.605Z,99903.34
2023-05-11T23:12:27.046Z,99925.19
2023-05-11T23:17:29.688Z,99820.09
2023-05-11T23:22:33.123Z,99927.63
2023-05-11T23:27:35.636Z,99914.50
2023-05-11T23:32:38.290Z,99929.31
2023-05-11T23:37:41.070Z,99883.59
2023-05-11T23:42:44.060Z,99959.78
2023-05-11T23:47:46.791Z,99899.22
2023-05-11T23:52:50.067Z,99933.38
2023-05-11T23:57:52.568Z,99907.09
